Time;durP1;ratioP1;P1;durP2;ratioP2;P2;SDS_P1;SDS_P2;PMS_P1;PMS_P2;Temp;Humidity;BMP_temperature;BMP_pressure;BME280_temperature;BME280_humidity;BME280_pressure;Samples;Min_cycle;Max_cycle;Signal;HPM_P1;HPM_P2
2022/08/08 00:00:10;;;;;;;10.10;8.95;;;14.30;99.90;;;;;;5055267;28;20619;-55
2022/08/08 00:03:18;;;;;;;10.18;9.27;;;14.40;99.90;;;;;;5052419;28;20068;-55
2022/08/08 00:06:38;;;;;;;10.50;9.57;;;14.30;99.90;;;;;;5036442;28;20103;-56
2022/08/08 00:09:33;;;;;;;10.60;9.50;;;14.30;99.90;;;;;;5033861;28;20358;-56
2022/08/08 00:12:06;;;;;;;9.13;8.32;;;14.30;99.90;;;;;;5042459;28;20044;-54
2022/08/08 00:15:11;;;;;;;10.93;9.68;;;14.20;99.90;;;;;;5053204;28;20052;-57
2022/08/08 00:18:03;;;;;;;11.40;9.40;;;14.20;99.90;;;;;;5055260;28;20652;-56
2022/08/08 00:20:37;;;;;;;10.02;9.00;;;14.20;99.90;;;;;;5053630;28;20040;-55
2022/08/08 00:23:34;;;;;;;10.05;9.05;;;14.20;99.90;;;;;;5054712;28;20040;-56
2022/08/08 00:26:22;;;;;;;10.83;9.73;;;14.20;99.90;;;;;;5053333;28;20070;-55
2022/08/08 00:29:21;;;;;;;10.90;9.90;;;14.10;99.90;;;;;;5052394;28;20449;-54
2022/08/08 00:32:26;;;;;;;16.70;9.50;;;14.10;99.90;;;;;;5053540;28;20044;-57
2022/08/08 00:35:33;;;;;;;10.27;9.18;;;14.10;99.90;;;;;;5052638;28;20048;-55
2022/08/08 00:38:26;;;;;;;12.77;9.48;;;14.10;99.90;;;;;;5052583;28;20066;-56
2022/08/08 00:41:13;;;;;;;10.45;9.35;;;14.10;99.90;;;;;;5053786;28;20044;-57
2022/08/08 00:43:53;;;;;;;12.07;10.88;;;14.00;99.90;;;;;;5053038;28;20044;-56
2022/08/08 00:46:55;;;;;;;10.20;9.20;;;14.10;99.90;;;;;;5052595;28;20467;-55
2022/08/08 00:49:43;;;;;;;9.90;9.00;;;14.00;99.90;;;;;;5053765;28;20028;-55
2022/08/08 00:52:49;;;;;;;13.40;11.25;;;14.00;99.90;;;;;;5052101;28;20768;-56
2022/08/08 00:55:39;;;;;;;10.82;9.77;;;14.00;99.90;;;;;;5051561;28;20059;-55
2022/08/08 00:58:58;;;;;;;10.43;9.40;;;14.00;99.90;;;;;;5052395;28;20044;-55
2022/08/08 01:01:54;;;;;;;10.63;9.50;;;13.90;99.90;;;;;;5051437;28;20049;-56
2022/08/08 01:05:00;;;;;;;13.23;10.95;;;13.90;99.90;;;;;;5048312;28;20090;-58
2022/08/08 01:08:00;;;;;;;10.75;9.35;;;13.90;99.90;;;;;;5046788;28;20049;-57
2022/08/08 01:11:13;;;;;;;10.35;9.20;;;13.90;99.90;;;;;;5044819;28;20048;-57
2022/08/08 01:14:19;;;;;;;9.02;8.13;;;13.80;99.90;;;;;;5047578;28;20045;-58
2022/08/08 01:17:51;;;;;;;10.02;9.02;;;13.80;99.90;;;;;;5051864;28;20040;-56
2022/08/08 01:20:27;;;;;;;32.70;10.77;;;13.80;99.90;;;;;;5050568;28;20079;-57
2022/08/08 01:23:10;;;;;;;10.10;9.15;;;13.80;99.90;;;;;;5052012;28;20344;-55
2022/08/08 01:26:48;;;;;;;11.70;10.55;;;13.70;99.90;;;;;;5051497;28;20045;-56
2022/08/08 01:29:33;;;;;;;10.02;8.82;;;13.70;99.90;;;;;;5051838;28;20102;-57
2022/08/08 01:32:58;;;;;;;9.75;8.85;;;13.70;99.90;;;;;;5052520;28;20033;-57
2022/08/08 01:35:58;;;;;;;12.90;10.80;;;13.70;99.90;;;;;;5051187;28;20139;-56
2022/08/08 01:39:05;;;;;;;11.13;10.13;;;13.70;99.90;;;;;;5027080;28;20072;-58
2022/08/08 01:42:02;;;;;;;12.52;10.40;;;13.60;99.90;;;;;;5031960;28;20045;-57
2022/08/08 01:44:47;;;;;;;11.43;9.48;;;13.60;99.90;;;;;;5025531;28;20075;-57
2022/08/08 01:47:26;;;;;;;13.88;9.43;;;13.60;99.90;;;;;;5031943;28;20044;-55
2022/08/08 01:50:37;;;;;;;10.30;9.27;;;13.60;99.90;;;;;;5029369;28;20570;-57
2022/08/08 01:53:29;;;;;;;10.65;9.30;;;13.60;99.90;;;;;;5031445;28;20091;-56
2022/08/08 01:57:07;;;;;;;15.45;9.73;;;13.50;99.90;;;;;;5044791;28;20463;-55
2022/08/08 01:59:45;;;;;;;10.13;9.20;;;13.50;99.90;;;;;;5029599;28;20523;-57
2022/08/08 02:02:51;;;;;;;10.30;9.07;;;13.50;99.90;;;;;;5051566;28;20812;-56
2022/08/08 02:05:23;;;;;;;10.05;9.02;;;13.50;99.90;;;;;;5047561;28;20128;-55
2022/08/08 02:08:11;;;;;;;11.88;10.65;;;13.50;99.90;;;;;;5030131;28;20106;-55
2022/08/08 02:10:52;;;;;;;12.65;11.35;;;13.50;99.90;;;;;;5044557;28;20047;-57
2022/08/08 02:13:47;;;;;;;13.23;10.00;;;13.50;99.90;;;;;;5050380;28;20055;-55
2022/08/08 02:16:57;;;;;;;11.88;10.00;;;13.50;99.90;;;;;;5051178;28;20049;-54
2022/08/08 02:19:38;;;;;;;10.77;9.50;;;13.50;99.90;;;;;;5050831;28;20569;-56
2022/08/08 02:22:52;;;;;;;15.48;11.13;;;13.50;99.90;;;;;;5051139;28;20048;-55
2022/08/08 02:25:32;;;;;;;11.75;10.55;;;13.50;99.90;;;;;;5050786;28;20047;-56
2022/08/08 02:28:41;;;;;;;10.40;9.38;;;13.50;99.90;;;;;;5050813;28;20052;-57
2022/08/08 02:31:55;;;;;;;20.02;10.63;;;13.50;99.90;;;;;;5050441;28;20072;-55
2022/08/08 02:34:47;;;;;;;9.88;8.55;;;13.50;99.90;;;;;;5049446;28;20589;-55
2022/08/08 02:38:11;;;;;;;10.80;9.70;;;13.50;99.90;;;;;;5051014;28;20041;-53
2022/08/08 02:41:17;;;;;;;12.10;9.20;;;13.50;99.90;;;;;;5046208;28;20806;-55
2022/08/08 02:44:35;;;;;;;10.27;9.27;;;13.40;99.90;;;;;;5051305;28;20120;-57
2022/08/08 02:47:47;;;;;;;11.05;9.95;;;13.40;99.90;;;;;;5050891;28;20041;-55
2022/08/08 02:50:40;;;;;;;12.60;11.40;;;13.40;99.90;;;;;;5050491;28;20323;-56
2022/08/08 02:53:42;;;;;;;9.90;8.98;;;13.30;99.90;;;;;;5051067;28;20531;-54
2022/08/08 02:56:43;;;;;;;10.65;9.55;;;13.30;99.90;;;;;;5050325;28;20056;-55
2022/08/08 02:59:50;;;;;;;12.13;8.65;;;13.30;99.90;;;;;;5050280;28;20044;-55
2022/08/08 03:02:44;;;;;;;14.50;9.52;;;13.30;99.90;;;;;;5048910;28;20041;-55
2022/08/08 03:05:20;;;;;;;10.30;9.40;;;13.30;99.90;;;;;;5033536;28;20840;-55
2022/08/08 03:08:09;;;;;;;11.93;10.73;;;13.30;99.90;;;;;;5032850;28;20052;-56
2022/08/08 03:11:08;;;;;;;11.02;9.93;;;13.30;99.90;;;;;;5046128;28;20075;-55
2022/08/08 03:14:30;;;;;;;11.15;10.00;;;13.40;99.90;;;;;;5055672;28;20494;-53
2022/08/08 03:17:31;;;;;;;14.70;11.05;;;13.40;99.90;;;;;;5053736;28;20044;-53
2022/08/08 03:20:06;;;;;;;11.80;10.57;;;13.40;99.90;;;;;;5038370;28;20044;-56
2022/08/08 03:22:47;;;;;;;11.10;9.63;;;13.40;99.90;;;;;;5053450;28;20693;-55
2022/08/08 03:25:27;;;;;;;11.60;10.40;;;13.40;99.90;;;;;;5053493;28;20137;-55
2022/08/08 03:28:09;;;;;;;11.35;10.02;;;13.50;99.90;;;;;;5053143;28;20098;-55
2022/08/08 03:30:41;;;;;;;11.43;10.02;;;13.40;99.90;;;;;;5053496;28;20682;-55
2022/08/08 03:33:17;;;;;;;11.85;10.30;;;13.50;99.90;;;;;;5052858;28;20138;-55
2022/08/08 03:36:05;;;;;;;9.80;8.90;;;13.50;99.90;;;;;;5054078;28;20040;-55
2022/08/08 03:38:37;;;;;;;10.90;9.80;;;13.50;99.90;;;;;;5053348;28;20068;-55
2022/08/08 03:41:34;;;;;;;10.68;8.80;;;13.50;99.90;;;;;;5052509;28;20041;-55
2022/08/08 03:44:32;;;;;;;8.95;8.05;;;13.50;99.90;;;;;;5053024;28;20122;-56
2022/08/08 03:47:02;;;;;;;9.00;7.95;;;13.50;99.90;;;;;;5053292;28;20044;-56
2022/08/08 03:49:50;;;;;;;10.55;9.25;;;13.50;99.90;;;;;;5054394;28;20135;-55
2022/08/08 03:52:31;;;;;;;9.43;8.57;;;13.60;99.90;;;;;;5038222;28;20708;-56
2022/08/08 03:55:09;;;;;;;9.45;8.55;;;13.60;99.90;;;;;;5053079;28;20506;-57
2022/08/08 03:57:58;;;;;;;10.20;9.15;;;13.60;99.90;;;;;;5052733;28;20048;-58
2022/08/08 04:00:54;;;;;;;11.57;8.82;;;13.60;99.90;;;;;;5052443;28;20788;-57
2022/08/08 04:03:45;;;;;;;9.63;8.73;;;13.60;99.90;;;;;;5038987;28;20506;-56
2022/08/08 04:06:28;;;;;;;10.07;9.07;;;13.50;99.90;;;;;;5053595;28;20136;-56
2022/08/08 04:08:59;;;;;;;10.13;9.13;;;13.50;99.90;;;;;;5049066;28;20086;-58
2022/08/08 04:11:41;;;;;;;12.80;8.35;;;13.50;99.90;;;;;;5036416;28;20040;-53
2022/08/08 04:14:36;;;;;;;11.05;8.55;;;13.40;99.90;;;;;;5039679;28;20831;-55
2022/08/08 04:17:05;;;;;;;8.63;7.82;;;13.40;99.90;;;;;;5053969;28;20118;-54
2022/08/08 04:19:55;;;;;;;8.75;7.85;;;13.40;99.90;;;;;;5052458;28;20556;-53
2022/08/08 04:22:25;;;;;;;9.68;7.97;;;13.30;99.90;;;;;;5054146;28;20033;-54
2022/08/08 04:24:57;;;;;;;8.52;7.57;;;13.40;99.90;;;;;;5052413;28;20620;-53
2022/08/08 04:27:25;;;;;;;10.38;8.75;;;13.40;99.90;;;;;;5052783;28;20097;-53
2022/08/08 04:30:12;;;;;;;9.40;8.50;;;13.40;99.90;;;;;;5051951;28;20762;-53
2022/08/08 04:32:46;;;;;;;10.18;9.18;;;13.40;99.90;;;;;;5053116;28;20047;-54
2022/08/08 04:35:18;;;;;;;9.52;8.50;;;13.40;99.90;;;;;;5036439;28;20079;-53
2022/08/08 04:37:48;;;;;;;10.50;9.40;;;13.40;99.90;;;;;;5054310;28;20126;-54
2022/08/08 04:40:20;;;;;;;9.98;8.90;;;13.40;99.90;;;;;;5052818;28;20430;-56
2022/08/08 04:42:52;;;;;;;12.60;9.32;;;13.40;99.90;;;;;;5053021;28;20135;-52
2022/08/08 04:45:26;;;;;;;10.52;9.52;;;13.40;99.90;;;;;;5054723;28;20037;-54
2022/08/08 04:47:58;;;;;;;10.15;8.88;;;13.40;99.90;;;;;;5052606;28;20132;-53
2022/08/08 04:50:30;;;;;;;9.82;8.80;;;13.40;99.90;;;;;;5053638;28;20136;-53
2022/08/08 04:53:12;;;;;;;9.02;8.15;;;13.40;99.90;;;;;;5052122;28;20110;-54
2022/08/08 04:55:59;;;;;;;;;;;13.50;99.90;;;;;;5053250;28;20048;-54
2022/08/08 04:58:30;;;;;;;10.18;9.18;;;13.50;99.90;;;;;;5052461;28;20023;-53
2022/08/08 05:00:59;;;;;;;14.52;10.80;;;13.50;99.90;;;;;;5036374;28;20514;-52
2022/08/08 05:03:37;;;;;;;12.70;10.85;;;13.60;99.90;;;;;;5052533;28;20053;-54
2022/08/08 05:06:25;;;;;;;10.38;9.32;;;13.70;99.90;;;;;;5052717;28;20045;-52
2022/08/08 05:08:56;;;;;;;9.73;8.65;;;13.80;99.90;;;;;;5043792;28;20106;-55
2022/08/08 05:11:31;;;;;;;10.00;9.00;;;13.80;99.90;;;;;;5050227;28;20051;-55
2022/08/08 05:14:07;;;;;;;12.30;9.55;;;13.90;99.90;;;;;;5051801;28;20040;-57
2022/08/08 05:16:38;;;;;;;10.73;9.73;;;13.90;99.90;;;;;;5051561;28;20418;-57
2022/08/08 05:19:25;;;;;;;10.63;9.27;;;14.00;99.90;;;;;;5038610;28;20059;-53
2022/08/08 05:22:14;;;;;;;10.40;9.25;;;14.10;99.90;;;;;;5052000;28;20049;-56
2022/08/08 05:24:46;;;;;;;11.82;10.73;;;14.10;99.90;;;;;;5050299;28;20740;-57
2022/08/08 05:27:16;;;;;;;10.85;9.65;;;14.20;99.90;;;;;;5051525;28;20051;-54
2022/08/08 05:29:44;;;;;;;9.30;8.50;;;14.20;99.90;;;;;;5051911;28;20045;-57
2022/08/08 05:32:19;;;;;;;10.82;9.63;;;14.30;99.90;;;;;;5051507;28;20048;-55
2022/08/08 05:34:59;;;;;;;9.50;8.60;;;14.30;99.90;;;;;;5050830;28;20113;-54
2022/08/08 05:37:38;;;;;;;11.80;10.02;;;14.40;99.90;;;;;;5052668;28;20043;-53
2022/08/08 05:40:28;;;;;;;11.25;10.15;;;14.50;99.90;;;;;;5051598;28;20448;-53
2022/08/08 05:43:06;;;;;;;12.10;10.77;;;14.50;99.90;;;;;;5052447;28;20139;-54
2022/08/08 05:45:59;;;;;;;10.05;8.82;;;14.60;99.90;;;;;;5051294;28;20052;-54
2022/08/08 05:48:33;;;;;;;9.02;8.13;;;14.70;99.90;;;;;;5052630;28;20067;-55
2022/08/08 05:51:03;;;;;;;10.07;9.05;;;14.70;99.90;;;;;;5051661;28;20061;-52
2022/08/08 05:53:44;;;;;;;11.13;9.93;;;14.80;99.90;;;;;;5051751;28;20063;-52
2022/08/08 05:56:37;;;;;;;12.35;11.23;;;14.90;99.90;;;;;;5051333;28;20135;-53
2022/08/08 05:59:17;;;;;;;12.90;11.52;;;15.00;99.90;;;;;;5052013;28;20051;-55
2022/08/08 06:03:09;;;;;;;14.18;12.18;;;15.00;99.90;;;;;;5051793;28;20036;-54
2022/08/08 06:05:03;;;;;;;12.70;11.30;;;15.10;99.90;;;;;;5051675;28;20514;-56
2022/08/08 06:07:51;;;;;;;14.02;10.77;;;15.10;99.90;;;;;;5053437;28;20036;-58
2022/08/08 06:10:31;;;;;;;16.48;12.07;;;15.20;99.90;;;;;;5046511;28;20743;-55
2022/08/08 06:13:00;;;;;;;12.02;10.63;;;15.10;99.90;;;;;;5049851;28;20045;-53
2022/08/08 06:15:29;;;;;;;17.40;11.18;;;15.20;99.90;;;;;;5050484;28;20036;-53
2022/08/08 06:18:22;;;;;;;13.23;11.48;;;15.20;99.90;;;;;;5052315;28;20036;-54
2022/08/08 06:20:57;;;;;;;14.18;11.05;;;15.30;99.90;;;;;;5051165;28;20910;-57
2022/08/08 06:23:29;;;;;;;15.95;10.70;;;15.30;99.90;;;;;;5053868;28;20509;-54
2022/08/08 06:26:18;;;;;;;12.57;10.43;;;15.40;99.90;;;;;;5051317;28;20044;-55
2022/08/08 06:29:09;;;;;;;14.85;12.57;;;15.50;99.90;;;;;;5038437;28;20418;-56
2022/08/08 06:32:03;;;;;;;15.95;12.18;;;15.60;99.90;;;;;;5051173;28;20067;-53
2022/08/08 06:34:46;;;;;;;13.18;11.23;;;15.80;99.90;;;;;;5051325;28;20737;-54
2022/08/08 06:37:37;;;;;;;15.93;11.80;;;16.00;99.90;;;;;;5055877;28;20062;-55
2022/08/08 06:40:13;;;;;;;19.05;12.52;;;16.20;99.90;;;;;;5054691;28;20037;-54
2022/08/08 06:43:06;;;;;;;14.15;12.38;;;16.30;99.90;;;;;;5055332;28;20049;-56
2022/08/08 06:45:49;;;;;;;15.48;13.88;;;16.50;99.90;;;;;;5055029;28;20676;-53
2022/08/08 06:48:18;;;;;;;17.40;14.18;;;16.60;99.90;;;;;;5055428;28;20136;-54
2022/08/08 06:50:47;;;;;;;15.20;12.85;;;16.70;99.90;;;;;;5038525;28;20044;-53
2022/08/08 06:53:18;;;;;;;15.73;14.02;;;16.80;99.90;;;;;;5055069;28;20043;-52
2022/08/08 06:55:53;;;;;;;14.30;12.90;;;16.90;99.90;;;;;;5055710;28;20241;-53
2022/08/08 06:58:30;;;;;;;18.40;14.23;;;17.10;99.90;;;;;;5039930;28;20044;-52
2022/08/08 07:01:02;;;;;;;13.02;11.52;;;17.20;99.90;;;;;;5055267;28;20508;-54
2022/08/08 07:03:57;;;;;;;16.30;12.50;;;17.30;99.90;;;;;;5053976;28;20464;-53
2022/08/08 07:06:53;;;;;;;13.27;11.90;;;17.40;99.90;;;;;;5055518;28;20055;-54
2022/08/08 07:09:41;;;;;;;13.57;11.77;;;17.50;99.90;;;;;;5053838;28;20052;-52
2022/08/08 07:12:43;;;;;;;13.77;12.27;;;17.60;99.90;;;;;;5033150;28;20048;-54
2022/08/08 07:15:56;;;;;;;17.00;12.10;;;17.80;99.90;;;;;;5053667;28;20047;-55
2022/08/08 07:18:56;;;;;;;12.93;11.65;;;17.90;99.90;;;;;;5055079;28;20045;-53
2022/08/08 07:21:32;;;;;;;16.65;12.70;;;18.00;99.90;;;;;;5054080;28;20090;-55
2022/08/08 07:24:08;;;;;;;13.18;11.38;;;18.00;99.90;;;;;;5054973;28;20063;-54
2022/08/08 07:26:50;;;;;;;13.30;11.85;;;18.10;99.90;;;;;;5054153;28;20125;-54
2022/08/08 07:29:20;;;;;;;14.85;11.75;;;18.20;99.90;;;;;;5055050;28;20052;-53
2022/08/08 07:32:09;;;;;;;11.63;10.38;;;18.20;99.90;;;;;;5054175;28;20045;-55
2022/08/08 07:34:43;;;;;;;14.15;12.70;;;18.20;99.90;;;;;;5038820;28;20044;-55
2022/08/08 07:37:30;;;;;;;13.40;11.43;;;18.20;99.90;;;;;;5054146;28;20048;-55
2022/08/08 07:40:23;;;;;;;11.77;10.10;;;18.40;99.90;;;;;;5054863;28;20045;-56
2022/08/08 07:43:01;;;;;;;12.88;11.50;;;18.50;99.90;;;;;;5054261;28;20593;-58
2022/08/08 07:45:31;;;;;;;15.02;11.57;;;18.70;99.90;;;;;;5053967;28;20044;-53
2022/08/08 07:48:02;;;;;;;23.27;11.27;;;18.80;99.90;;;;;;5038372;28;20114;-55
2022/08/08 07:50:33;;;;;;;11.57;10.38;;;18.90;99.90;;;;;;5053923;28;20048;-55
2022/08/08 07:53:08;;;;;;;13.38;9.93;;;19.10;99.90;;;;;;5054074;28;20048;-53
2022/08/08 07:55:52;;;;;;;10.20;9.20;;;19.20;99.90;;;;;;5052923;28;20127;-61
2022/08/08 07:58:32;;;;;;;9.45;8.50;;;19.40;99.90;;;;;;5034463;28;20041;-53
2022/08/08 08:01:09;;;;;;;9.70;8.68;;;19.60;99.90;;;;;;5033650;28;20057;-55
2022/08/08 08:04:09;;;;;;;11.30;8.98;;;19.80;99.90;;;;;;5033471;28;20048;-56
2022/08/08 08:06:42;;;;;;;10.32;9.13;;;20.10;99.90;;;;;;5034296;28;20052;-54
2022/08/08 08:09:37;;;;;;;13.20;8.85;;;20.90;99.90;;;;;;5034573;28;20045;-56
2022/08/08 08:12:12;;;;;;;12.23;8.05;;;21.50;99.90;;;;;;5030865;28;20040;-57
2022/08/08 08:15:05;;;;;;;8.35;7.45;;;22.00;99.90;;;;;;5048604;28;20074;-56
2022/08/08 08:17:44;;;;;;;8.48;7.47;;;22.50;99.90;;;;;;5054220;28;20044;-56
2022/08/08 08:20:20;;;;;;;8.07;6.40;;;22.90;99.90;;;;;;5052858;28;20118;-56
2022/08/08 08:22:56;;;;;;;10.05;6.90;;;23.10;99.90;;;;;;5053761;28;20051;-55
2022/08/08 08:25:24;;;;;;;8.13;7.35;;;23.00;99.90;;;;;;5036578;28;20048;-56
2022/08/08 08:28:10;;;;;;;8.53;7.73;;;22.70;99.90;;;;;;5054770;28;21058;-54
2022/08/08 08:30:54;;;;;;;9.70;7.43;;;22.40;99.90;;;;;;5052601;28;20045;-53
2022/08/08 08:33:25;;;;;;;10.73;8.27;;;22.10;99.90;;;;;;5037331;28;20086;-55
2022/08/08 08:35:52;;;;;;;10.13;7.57;;;21.90;99.90;;;;;;5055160;28;20705;-53
2022/08/08 08:38:41;;;;;;;9.63;7.30;;;21.70;99.90;;;;;;5053171;28;20055;-54
2022/08/08 08:41:20;;;;;;;8.13;6.55;;;21.50;99.90;;;;;;5053233;28;20048;-55
2022/08/08 08:43:51;;;;;;;9.30;7.90;;;21.40;99.90;;;;;;5052596;28;20043;-55
2022/08/08 08:46:39;;;;;;;10.07;8.00;;;21.30;99.90;;;;;;5054116;28;20123;-56
2022/08/08 08:49:14;;;;;;;8.85;7.95;;;21.10;99.90;;;;;;5052725;28;20514;-54
2022/08/08 08:51:45;;;;;;;11.15;8.13;;;21.10;99.90;;;;;;5053321;28;20506;-54
2022/08/08 08:54:21;;;;;;;7.90;7.05;;;21.00;99.90;;;;;;5052104;28;20810;-55
2022/08/08 08:56:54;;;;;;;7.03;6.32;;;21.00;99.90;;;;;;5051842;28;20113;-56
2022/08/08 08:59:24;;;;;;;5.78;5.18;;;21.10;99.90;;;;;;5053833;28;20135;-55
2022/08/08 09:02:22;;;;;;;7.85;7.00;;;21.30;99.90;;;;;;5052481;28;20135;-61
2022/08/08 09:04:58;;;;;;;9.80;7.35;;;21.80;99.90;;;;;;5053373;28;20056;-56
2022/08/08 09:07:28;;;;;;;7.70;6.60;;;22.30;99.90;;;;;;5052768;28;20102;-55
2022/08/08 09:10:16;;;;;;;7.05;6.35;;;22.80;99.90;;;;;;5053192;28;20051;-56
2022/08/08 09:12:47;;;;;;;9.15;6.80;;;23.40;99.90;;;;;;5030840;28;20545;-55
2022/08/08 09:15:17;;;;;;;9.52;6.75;;;23.60;99.90;;;;;;5049006;28;20053;-53
2022/08/08 09:18:03;;;;;;;9.70;6.38;;;23.70;99.90;;;;;;5052568;28;20044;-53
2022/08/08 09:20:32;;;;;;;7.13;6.43;;;23.80;99.90;;;;;;5053246;28;20048;-54
2022/08/08 09:23:20;;;;;;;7.68;6.97;;;23.70;99.90;;;;;;5054514;28;20485;-53
2022/08/08 09:26:13;;;;;;;7.15;6.45;;;23.70;99.90;;;;;;5037824;28;20554;-54
2022/08/08 09:28:42;;;;;;;13.93;6.38;;;23.60;99.90;;;;;;5052893;28;20482;-55
2022/08/08 09:31:42;;;;;;;8.20;7.43;;;23.80;99.90;;;;;;5042789;28;20033;-52
2022/08/08 09:34:34;;;;;;;9.02;7.30;;;24.00;99.90;;;;;;5049808;28;20105;-54
2022/08/08 09:37:09;;;;;;;6.45;5.82;;;24.20;99.90;;;;;;5052944;28;20044;-52
2022/08/08 09:40:06;;;;;;;7.53;6.70;;;24.40;99.90;;;;;;5053506;28;20094;-52
2022/08/08 09:42:42;;;;;;;6.40;5.82;;;24.70;99.90;;;;;;5052828;28;20048;-52
2022/08/08 09:45:22;;;;;;;9.02;6.35;;;24.90;99.90;;;;;;5054690;28;20529;-55
2022/08/08 09:48:09;;;;;;;7.90;5.80;;;25.00;99.90;;;;;;5052564;28;20955;-56
2022/08/08 09:50:52;;;;;;;5.32;4.70;;;25.20;99.90;;;;;;5053241;28;20048;-55
2022/08/08 09:53:29;;;;;;;8.00;5.00;;;25.40;99.90;;;;;;5053707;28;20248;-56
2022/08/08 09:56:17;;;;;;;6.43;4.65;;;25.50;99.90;;;;;;5053666;28;20071;-56
2022/08/08 09:59:03;;;;;;;5.18;4.43;;;25.70;99.90;;;;;;5054494;28;20786;-56
2022/08/08 10:01:52;;;;;;;6.95;4.35;;;25.80;99.90;;;;;;5054614;28;20094;-55
2022/08/08 10:04:29;;;;;;;6.60;3.90;;;26.00;99.90;;;;;;5054854;28;20055;-56
2022/08/08 10:07:12;;;;;;;5.10;4.03;;;26.20;95.90;;;;;;5054808;28;20048;-56
2022/08/08 10:09:43;;;;;;;3.88;3.47;;;26.30;94.20;;;;;;5054845;28;20156;-57
2022/08/08 10:12:31;;;;;;;5.10;3.10;;;26.40;95.90;;;;;;5056733;28;20775;-56
2022/08/08 10:15:07;;;;;;;6.55;3.10;;;26.60;91.00;;;;;;5052161;28;20044;-56
2022/08/08 10:17:49;;;;;;;7.70;3.45;;;26.70;88.40;;;;;;5038376;28;20076;-56
2022/08/08 10:20:43;;;;;;;3.50;3.17;;;26.90;84.90;;;;;;5037167;28;20048;-56
2022/08/08 10:23:47;;;;;;;5.95;2.95;;;26.90;81.30;;;;;;5038034;28;20041;-56
2022/08/08 10:26:30;;;;;;;6.40;3.05;;;26.90;79.80;;;;;;5037392;28;20040;-57
2022/08/08 10:29:45;;;;;;;7.20;3.00;;;26.90;78.80;;;;;;5038054;28;20056;-58
2022/08/08 10:32:36;;;;;;;4.60;2.67;;;26.90;80.30;;;;;;5038244;28;20045;-57
2022/08/08 10:35:12;;;;;;;2.63;2.42;;;27.00;77.10;;;;;;5037385;28;20499;-56
2022/08/08 10:38:03;;;;;;;2.88;2.20;;;27.00;78.30;;;;;;5052123;28;20118;-56
2022/08/08 10:40:31;;;;;;;2.25;2.08;;;27.00;76.60;;;;;;5057346;28;20070;-55
2022/08/08 10:43:03;;;;;;;2.85;2.65;;;27.10;71.20;;;;;;5040055;28;20051;-55
2022/08/08 10:45:42;;;;;;;4.03;2.33;;;27.20;69.00;;;;;;5040332;28;20048;-55
2022/08/08 10:48:34;;;;;;;2.75;2.38;;;27.30;70.80;;;;;;5057440;28;20051;-59
2022/08/08 10:51:27;;;;;;;4.03;2.25;;;27.40;65.90;;;;;;5056176;28;20032;-52
2022/08/08 10:54:06;;;;;;;2.88;2.22;;;27.40;71.50;;;;;;5057639;28;20090;-55
2022/08/08 10:56:34;;;;;;;7.43;1.95;;;27.50;71.00;;;;;;5055338;28;20098;-55
2022/08/08 10:59:09;;;;;;;2.55;2.00;;;27.50;66.90;;;;;;5055776;28;20817;-60
2022/08/08 11:01:45;;;;;;;5.18;2.63;;;27.60;67.20;;;;;;5056399;28;20060;-66
2022/08/08 11:04:20;;;;;;;2.33;1.95;;;27.60;66.30;;;;;;5056811;28;20040;-66
2022/08/08 11:06:59;;;;;;;3.88;1.70;;;27.60;64.30;;;;;;5057673;28;20418;-66
2022/08/08 11:09:26;;;;;;;2.38;1.83;;;27.50;65.40;;;;;;5039592;28;20498;-66
2022/08/08 11:11:58;;;;;;;6.65;1.70;;;27.50;66.00;;;;;;5056442;28;20840;-65
2022/08/08 11:14:49;;;;;;;1.92;1.80;;;27.60;65.30;;;;;;5057028;28;20029;-65
2022/08/08 11:17:23;;;;;;;4.22;2.20;;;27.60;63.90;;;;;;5059918;28;20517;-65
2022/08/08 11:20:12;;;;;;;2.33;2.13;;;27.70;63.40;;;;;;5057983;28;20051;-65
2022/08/08 11:22:40;;;;;;;1.80;1.70;;;27.90;63.90;;;;;;5055296;28;20106;-65
2022/08/08 11:25:11;;;;;;;2.72;1.58;;;28.00;62.20;;;;;;5057476;28;20044;-65
2022/08/08 11:27:41;;;;;;;2.03;1.75;;;28.00;62.10;;;;;;5054905;28;20313;-65
2022/08/08 11:30:12;;;;;;;3.08;2.10;;;28.10;61.40;;;;;;5056601;28;20045;-71
2022/08/08 11:32:53;;;;;;;9.32;2.05;;;28.20;59.00;;;;;;5056918;28;20044;-69
2022/08/08 11:35:22;;;;;;;2.50;1.83;;;28.10;61.30;;;;;;5056688;28;20036;-68
2022/08/08 11:38:11;;;;;;;4.63;1.85;;;28.00;59.50;;;;;;5041746;28;20139;-68
2022/08/08 11:40:59;;;;;;;2.38;2.05;;;27.90;60.60;;;;;;5056650;28;20400;-67
2022/08/08 11:43:29;;;;;;;1.75;1.52;;;28.00;61.30;;;;;;5056922;28;20678;-68
2022/08/08 11:46:08;;;;;;;9.20;1.80;;;28.00;59.60;;;;;;5055587;28;20051;-68
2022/08/08 11:48:45;;;;;;;;;;;28.10;60.00;;;;;;5057974;28;20052;-69
2022/08/08 11:51:17;;;;;;;2.65;1.80;;;28.20;58.40;;;;;;5056281;28;20385;-68
2022/08/08 11:54:06;;;;;;;5.53;1.80;;;28.20;57.70;;;;;;5056747;28;20033;-65
2022/08/08 11:56:53;;;;;;;2.50;1.63;;;28.20;57.10;;;;;;5054454;28;20547;-67
2022/08/08 11:59:33;;;;;;;2.95;1.98;;;28.10;57.90;;;;;;5056119;28;20045;-67
2022/08/08 12:02:26;;;;;;;5.45;1.50;;;28.10;59.00;;;;;;5056015;28;20470;-66
2022/08/08 12:05:09;;;;;;;2.90;1.73;;;28.10;58.10;;;;;;5055816;28;20503;-66
2022/08/08 12:07:50;;;;;;;1.83;1.30;;;28.20;58.40;;;;;;5056119;28;20057;-67
2022/08/08 12:10:20;;;;;;;2.42;1.90;;;28.20;57.60;;;;;;5054946;28;20681;-66
2022/08/08 12:12:49;;;;;;;1.92;1.83;;;28.30;57.20;;;;;;5054938;28;20231;-66
2022/08/08 12:15:35;;;;;;;2.95;1.70;;;28.20;55.70;;;;;;5050325;28;20129;-67
2022/08/08 12:18:19;;;;;;;1.60;1.50;;;28.20;55.90;;;;;;5039205;28;20037;-66
2022/08/08 12:20:51;;;;;;;1.75;1.55;;;28.30;54.70;;;;;;5032954;28;20037;-66
2022/08/08 12:23:33;;;;;;;2.85;1.52;;;28.40;55.90;;;;;;5035012;28;20045;-66
2022/08/08 12:26:23;;;;;;;1.60;1.50;;;28.50;56.70;;;;;;5033805;28;20059;-66
2022/08/08 12:29:16;;;;;;;5.43;1.52;;;28.60;56.20;;;;;;5036402;28;20048;-65
2022/08/08 12:31:45;;;;;;;4.38;1.70;;;28.60;55.10;;;;;;5035531;28;20127;-65
2022/08/08 12:34:42;;;;;;;2.47;1.70;;;28.60;57.30;;;;;;5033941;28;20128;-65
2022/08/08 12:37:22;;;;;;;3.38;1.60;;;28.60;56.60;;;;;;5042752;28;20045;-66
2022/08/08 12:40:16;;;;;;;3.08;1.67;;;28.70;56.80;;;;;;5055010;28;20048;-65
2022/08/08 12:42:51;;;;;;;1.98;1.33;;;28.80;55.30;;;;;;5055510;28;20162;-66
2022/08/08 12:45:18;;;;;;;8.60;1.85;;;28.80;55.50;;;;;;5036641;28;20050;-65
2022/08/08 12:48:16;;;;;;;5.65;2.75;;;28.70;54.30;;;;;;5055785;28;20502;-66
2022/08/08 12:51:03;;;;;;;5.82;1.63;;;28.50;54.90;;;;;;5052812;28;20052;-66
2022/08/08 12:53:32;;;;;;;2.67;1.70;;;28.40;55.50;;;;;;5053278;28;20426;-65
2022/08/08 12:56:09;;;;;;;1.40;1.30;;;28.30;56.70;;;;;;5052494;28;20664;-66
2022/08/08 12:58:51;;;;;;;3.53;1.55;;;28.40;56.60;;;;;;5052680;28;20290;-65
2022/08/08 13:01:32;;;;;;;1.92;1.70;;;28.30;55.30;;;;;;5054087;28;20041;-65
2022/08/08 13:04:13;;;;;;;4.97;1.92;;;28.30;57.90;;;;;;5052754;28;20310;-64
2022/08/08 13:07:07;;;;;;;2.15;1.70;;;28.50;57.10;;;;;;5054377;28;20050;-65
2022/08/08 13:09:59;;;;;;;3.15;1.50;;;28.60;56.30;;;;;;5054598;28;20059;-66
2022/08/08 13:12:35;;;;;;;1.92;1.60;;;28.70;54.60;;;;;;5052823;28;20044;-64
2022/08/08 13:15:11;;;;;;;3.20;1.50;;;28.80;54.70;;;;;;5053757;28;20141;-66
2022/08/08 13:17:40;;;;;;;2.03;1.27;;;28.90;54.50;;;;;;5039149;28;20411;-66
2022/08/08 13:20:26;;;;;;;2.17;1.60;;;29.00;53.70;;;;;;5033909;28;20047;-66
2022/08/08 13:22:55;;;;;;;2.03;1.63;;;29.10;54.10;;;;;;5034599;28;20596;-65
2022/08/08 13:25:42;;;;;;;3.05;2.00;;;29.10;54.70;;;;;;5034093;28;20435;-66
2022/08/08 13:28:29;;;;;;;2.22;1.58;;;29.10;53.50;;;;;;5033173;28;20349;-65
2022/08/08 13:30:59;;;;;;;2.20;1.42;;;29.10;54.50;;;;;;5033886;28;20126;-66
2022/08/08 13:33:31;;;;;;;1.77;1.50;;;29.10;53.70;;;;;;5051277;28;20784;-65
2022/08/08 13:36:09;;;;;;;2.10;1.73;;;29.10;52.00;;;;;;5054348;28;20051;-64
2022/08/08 13:38:37;;;;;;;2.60;1.38;;;29.10;52.30;;;;;;5053725;28;20071;-65
2022/08/08 13:41:06;;;;;;;3.25;1.52;;;29.00;51.70;;;;;;5054373;28;20917;-64
2022/08/08 13:43:46;;;;;;;1.55;1.20;;;29.00;53.00;;;;;;5052162;28;20430;-65
2022/08/08 13:46:17;;;;;;;2.08;1.42;;;29.10;52.00;;;;;;5034287;28;20055;-65
2022/08/08 13:48:55;;;;;;;1.50;1.40;;;29.10;52.70;;;;;;5033833;28;20053;-65
2022/08/08 13:51:59;;;;;;;1.48;1.30;;;29.10;52.80;;;;;;5049976;28;20044;-66
2022/08/08 13:54:32;;;;;;;1.88;1.48;;;29.20;50.00;;;;;;5051916;28;20359;-66
2022/08/08 13:57:08;;;;;;;4.57;2.20;;;29.30;51.40;;;;;;5053367;28;20052;-66
2022/08/08 13:59:46;;;;;;;3.83;1.58;;;29.30;51.50;;;;;;5053743;28;20441;-65
2022/08/08 14:02:24;;;;;;;2.17;1.42;;;29.30;51.00;;;;;;5052719;28;20041;-66
2022/08/08 14:04:59;;;;;;;1.35;1.25;;;29.20;51.40;;;;;;5037538;28;20106;-66
2022/08/08 14:07:48;;;;;;;1.85;1.38;;;29.20;51.60;;;;;;5053358;28;20064;-67